This is the latest recevied weather packets stored in our database for station/object W4DEX-2. If no packets are shown the sender has not sent any weather packets the latest 1 day(s).
| Time | Temp. | Humidity | Pressure | Rain* | Wind** | Luminosity | Snow |
|---|---|---|---|---|---|---|---|
| 1778048403 | 16.67° C | 68% | 1013.8 hPa | 0 mm | 4.92 m/s, 175° | - | - |
| 1778043302 | 17.78° C | 66% | 1014.5 hPa | 0 mm | 5.36 m/s, 179° | - | - |
| 1778043002 | 17.78° C | 65% | 1014.5 hPa | 0 mm | 5.81 m/s, 174° | - | - |
| 1778042703 | 17.78° C | 65% | 1014.7 hPa | 0 mm | 5.81 m/s, 175° | - | - |
| 1778041502 | 17.78° C | 62% | 1014.4 hPa | 0 mm | 5.81 m/s, 177° | - | - |
| 1778041202 | 18.33° C | 62% | 1014.5 hPa | 0 mm | 5.36 m/s, 177° | - | - |
| 1778040902 | 18.33° C | 61% | 1014.4 hPa | 0 mm | 5.81 m/s, 179° | - | - |
| 1778040603 | 18.33° C | 60% | 1014.3 hPa | 0 mm | 5.81 m/s, 176° | - | - |
| 1778039703 | 18.33° C | 59% | 1014.2 hPa | 0 mm | 5.81 m/s, 176° | - | - |
| 1778038502 | 18.89° C | 57% | 1014 hPa | 0 mm | 5.36 m/s, 177° | - | - |
| 1778037302 | 18.89° C | 55% | 1014 hPa | 0 mm | 5.81 m/s, 168° | - | - |
| 1778036102 | 18.89° C | 52% | 1014.2 hPa | 0 mm | 5.36 m/s, 175° | - | - |
| 1778035803 | 18.89° C | 51% | 1014.2 hPa | 0 mm | 5.36 m/s, 173° | - | - |
| 1778035503 | 18.89° C | 50% | 1014.3 hPa | 0 mm | 5.81 m/s, 177° | - | - |
| 1778031003 | 20° C | 44% | 1013.9 hPa | 0 mm | 5.36 m/s, 175° | - | - |
| 1778028306 | 21.11° C | 42% | 1013.5 hPa | 0 mm | 5.36 m/s, 178° | - | - |
| 1778025902 | 22.78° C | 37% | 1013.1 hPa | 0 mm | 4.92 m/s, 179° | - | - |
| 1778023803 | 23.33° C | 36% | 1013.1 hPa | 0 mm | 5.36 m/s, 179° | - | - |
| 1778020202 | 25.56° C | 31% | 1013.2 hPa | 0 mm | 4.92 m/s, 179° | - | - |
| 1778019903 | 25° C | 31% | 1013.4 hPa | 0 mm | 4.47 m/s, 179° | - | - |
| 1778018102 | 25.56° C | 31% | 1013.3 hPa | 0 mm | 5.36 m/s, 179° | - | - |
| 1778017203 | 25.56° C | 31% | 1013.6 hPa | 0 mm | 5.36 m/s, 183° | - | - |
| 1778012403 | 26.11° C | 29% | 1013.7 hPa | 0 mm | 4.92 m/s, 184° | - | - |
* Rain latest hour (hover to see other rain measurements)
** Current wind speed in m/s (hover to see current wind gust speed)